Time;durP1;ratioP1;P1;durP2;ratioP2;P2;SDS_P1;SDS_P2;PMS_P1;PMS_P2;Temp;Humidity;BMP_temperature;BMP_pressure;BME280_temperature;BME280_humidity;BME280_pressure;Samples;Min_cycle;Max_cycle;Signal;HPM_P1;HPM_P2
2022/10/28 00:01:09;;;;;;;13.50;8.43;;;15.10;99.90;;;;;;5072367;28;20075;-70
2022/10/28 00:03:47;;;;;;;18.70;9.30;;;15.10;99.90;;;;;;5072555;28;20086;-69
2022/10/28 00:06:15;;;;;;;12.17;8.20;;;15.10;99.90;;;;;;5072628;28;20044;-70
2022/10/28 00:08:42;;;;;;;14.80;8.33;;;15.10;99.90;;;;;;5072507;28;20049;-70
2022/10/28 00:11:13;;;;;;;19.20;8.97;;;15.10;99.90;;;;;;5072186;28;20053;-70
2022/10/28 00:13:40;;;;;;;17.53;9.20;;;15.20;99.90;;;;;;5072728;28;20047;-70
2022/10/28 00:16:20;;;;;;;14.67;9.60;;;15.20;99.90;;;;;;5072132;28;20090;-70
2022/10/28 00:18:47;;;;;;;18.10;9.57;;;15.20;99.90;;;;;;5072149;28;20055;-70
2022/10/28 00:21:18;;;;;;;15.10;8.70;;;15.30;99.90;;;;;;5071775;28;20047;-69
2022/10/28 00:23:44;;;;;;;18.70;8.73;;;15.40;99.90;;;;;;5071771;28;20132;-70
2022/10/28 00:26:17;;;;;;;19.00;9.90;;;15.40;99.90;;;;;;5071684;28;20067;-69
2022/10/28 00:28:45;;;;;;;18.03;9.53;;;15.30;99.90;;;;;;5071690;28;20111;-69
2022/10/28 00:31:14;;;;;;;17.57;10.00;;;15.30;99.90;;;;;;5071684;28;20049;-69
2022/10/28 00:33:40;;;;;;;12.27;8.80;;;15.30;99.90;;;;;;5070711;28;20175;-69
2022/10/28 00:36:11;;;;;;;15.63;9.30;;;15.30;99.90;;;;;;5071989;28;20156;-69
2022/10/28 00:38:38;;;;;;;18.20;9.60;;;15.30;99.90;;;;;;5071948;28;20508;-69
2022/10/28 00:41:05;;;;;;;17.90;9.83;;;15.20;99.90;;;;;;5071938;28;20044;-69
2022/10/28 00:43:43;;;;;;;18.00;9.53;;;15.30;99.90;;;;;;5070958;28;20036;-69
2022/10/28 00:46:19;;;;;;;16.17;10.10;;;15.20;99.90;;;;;;5072013;28;20102;-69
2022/10/28 00:48:51;;;;;;;19.70;9.77;;;15.20;99.90;;;;;;5071715;28;20392;-69
2022/10/28 00:51:18;;;;;;;19.93;9.33;;;15.20;99.90;;;;;;5074849;28;20062;-69
2022/10/28 00:53:47;;;;;;;16.67;9.33;;;15.20;99.90;;;;;;5075615;28;20041;-69
2022/10/28 00:56:14;;;;;;;16.37;9.10;;;15.20;99.90;;;;;;5075699;28;20036;-69
2022/10/28 00:58:40;;;;;;;16.63;9.07;;;15.20;99.90;;;;;;5057974;28;20136;-69
2022/10/28 01:01:06;;;;;;;20.90;10.33;;;15.20;99.90;;;;;;5075239;28;20127;-69
2022/10/28 01:03:32;;;;;;;20.57;10.13;;;15.10;99.90;;;;;;5075476;28;20040;-69
2022/10/28 01:05:58;;;;;;;17.50;10.43;;;15.10;99.90;;;;;;5075070;28;20098;-70
2022/10/28 01:08:23;;;;;;;19.43;9.67;;;15.10;99.90;;;;;;5075258;28;20117;-69
2022/10/28 01:11:15;;;;;;;19.90;10.17;;;15.10;99.90;;;;;;5075157;28;20473;-71
2022/10/28 01:13:59;;;;;;;24.73;10.73;;;15.00;99.90;;;;;;5075546;28;20087;-69
2022/10/28 01:16:45;;;;;;;16.03;10.20;;;15.00;99.90;;;;;;5074308;28;20059;-69
2022/10/28 01:19:11;;;;;;;18.77;9.97;;;15.00;99.90;;;;;;5074867;28;20041;-69
2022/10/28 01:22:14;;;;;;;18.67;9.60;;;14.90;99.90;;;;;;5075204;28;20063;-69
2022/10/28 01:25:17;;;;;;;18.43;10.03;;;14.90;99.90;;;;;;5074709;28;20045;-69
2022/10/28 01:27:54;;;;;;;19.60;10.80;;;14.80;99.90;;;;;;5075020;28;20049;-69
2022/10/28 01:30:23;;;;;;;17.97;10.53;;;14.80;99.90;;;;;;5075191;28;20044;-69
2022/10/28 01:32:49;;;;;;;14.23;9.27;;;14.80;99.90;;;;;;5073738;28;20404;-69
2022/10/28 01:35:33;;;;;;;20.93;10.60;;;14.80;99.90;;;;;;5074647;28;20048;-69
2022/10/28 01:38:17;;;;;;;14.97;10.07;;;14.80;99.90;;;;;;5073720;28;20057;-69
2022/10/28 01:41:02;;;;;;;18.60;10.90;;;14.80;99.90;;;;;;5074807;28;20044;-69
2022/10/28 01:43:35;;;;;;;18.43;11.70;;;14.80;99.90;;;;;;5074592;28;20295;-69
2022/10/28 01:46:12;;;;;;;20.63;11.83;;;14.80;99.90;;;;;;5073516;28;20055;-69
2022/10/28 01:48:56;;;;;;;18.37;11.30;;;14.80;99.90;;;;;;5074734;28;20087;-69
2022/10/28 01:51:30;;;;;;;20.57;11.23;;;14.80;99.90;;;;;;5074569;28;20504;-69
2022/10/28 01:53:58;;;;;;;18.90;11.27;;;14.80;99.90;;;;;;5072954;28;20106;-69
2022/10/28 01:56:30;;;;;;;19.50;11.13;;;14.70;99.90;;;;;;5074302;28;20041;-69
2022/10/28 01:58:59;;;;;;;17.30;10.47;;;14.70;99.90;;;;;;5074275;28;20048;-70
2022/10/28 02:01:26;;;;;;;20.13;10.97;;;14.70;99.90;;;;;;5074164;28;20455;-69
2022/10/28 02:03:53;;;;;;;19.80;11.47;;;14.70;99.90;;;;;;5074265;28;20041;-69
2022/10/28 02:06:22;;;;;;;23.10;11.10;;;14.70;99.90;;;;;;5072691;28;20061;-69
2022/10/28 02:08:52;;;;;;;20.03;10.60;;;14.70;99.90;;;;;;5056609;28;20053;-69
2022/10/28 02:11:20;;;;;;;18.87;10.83;;;14.60;99.90;;;;;;5073886;28;20120;-69
2022/10/28 02:14:06;;;;;;;18.73;10.83;;;14.60;99.90;;;;;;5074074;28;20411;-70
2022/10/28 02:16:40;;;;;;;15.95;10.55;;;14.60;99.90;;;;;;5074102;28;20048;-69
2022/10/28 02:19:34;;;;;;;19.38;11.60;;;14.60;99.90;;;;;;5073757;28;20396;-70
2022/10/28 02:22:21;;;;;;;17.83;10.60;;;14.50;99.90;;;;;;5073816;28;20127;-69
2022/10/28 02:25:08;;;;;;;22.43;11.57;;;14.50;99.90;;;;;;5073593;28;20131;-69
2022/10/28 02:28:02;;;;;;;20.40;11.87;;;14.50;99.90;;;;;;5073830;28;20040;-69
2022/10/28 02:30:36;;;;;;;22.37;11.60;;;14.50;99.90;;;;;;5073880;28;20052;-69
2022/10/28 02:33:05;;;;;;;21.27;10.77;;;14.50;99.90;;;;;;5073599;28;20048;-69
2022/10/28 02:35:38;;;;;;;19.10;11.93;;;14.50;99.90;;;;;;5073696;28;20045;-69
2022/10/28 02:38:09;;;;;;;16.97;11.67;;;14.50;99.90;;;;;;5073599;28;20067;-69
2022/10/28 02:40:37;;;;;;;17.47;11.47;;;14.50;99.90;;;;;;5074284;28;20427;-69
2022/10/28 02:43:07;;;;;;;18.60;12.03;;;14.50;99.90;;;;;;5073179;28;20472;-70
2022/10/28 02:45:46;;;;;;;21.70;11.83;;;14.50;99.90;;;;;;5073468;28;20207;-69
2022/10/28 02:48:17;;;;;;;22.17;11.80;;;14.50;99.90;;;;;;5073203;28;20052;-70
2022/10/28 02:50:47;;;;;;;22.20;12.30;;;14.60;99.90;;;;;;5073681;28;20449;-70
2022/10/28 02:53:20;;;;;;;20.17;11.43;;;14.50;99.90;;;;;;5073118;28;20504;-70
2022/10/28 02:55:51;;;;;;;19.43;11.90;;;14.50;99.90;;;;;;5073356;28;20472;-69
2022/10/28 02:58:17;;;;;;;19.37;12.60;;;14.50;99.90;;;;;;5073072;28;20040;-69
2022/10/28 03:00:44;;;;;;;20.70;12.17;;;14.50;99.90;;;;;;5073455;28;20442;-69
2022/10/28 03:03:10;;;;;;;23.60;14.00;;;14.50;99.90;;;;;;5072896;28;20049;-69
2022/10/28 03:05:36;;;;;;;21.17;11.70;;;14.50;99.90;;;;;;5073209;28;20102;-69
2022/10/28 03:08:01;;;;;;;26.43;12.37;;;14.50;99.90;;;;;;5073022;28;20560;-72
2022/10/28 03:10:27;;;;;;;24.13;13.10;;;14.50;99.90;;;;;;5073132;28;20396;-69
2022/10/28 03:12:53;;;;;;;20.70;12.20;;;14.50;99.90;;;;;;5072453;28;20041;-69
2022/10/28 03:15:19;;;;;;;22.77;12.50;;;14.50;99.90;;;;;;5072581;28;20101;-69
2022/10/28 03:17:44;;;;;;;27.43;11.57;;;14.50;99.90;;;;;;5073027;28;20077;-69
2022/10/28 03:20:10;;;;;;;19.57;12.13;;;14.40;99.90;;;;;;5072864;28;20048;-69
2022/10/28 03:22:36;;;;;;;20.27;12.37;;;14.40;99.90;;;;;;5073014;28;20052;-69
2022/10/28 03:25:02;;;;;;;19.73;12.03;;;14.40;99.90;;;;;;5072784;28;20106;-69
2022/10/28 03:27:27;;;;;;;19.60;12.10;;;14.40;99.90;;;;;;5072660;28;20519;-69
2022/10/28 03:29:53;;;;;;;21.13;12.60;;;14.40;99.90;;;;;;5073087;28;20110;-69
2022/10/28 03:32:19;;;;;;;26.77;12.63;;;14.40;99.90;;;;;;5072585;28;20055;-69
2022/10/28 03:34:46;;;;;;;20.83;12.60;;;14.40;99.90;;;;;;5072958;28;20087;-69
2022/10/28 03:37:12;;;;;;;21.80;13.97;;;14.40;99.90;;;;;;5072633;28;20370;-69
2022/10/28 03:39:38;;;;;;;25.83;12.67;;;14.30;99.90;;;;;;5071775;28;20060;-69
2022/10/28 03:42:03;;;;;;;21.67;12.23;;;14.30;99.90;;;;;;5072854;28;20080;-69
2022/10/28 03:44:29;;;;;;;24.00;12.20;;;14.30;99.90;;;;;;5072159;28;20041;-69
2022/10/28 03:46:55;;;;;;;22.57;12.57;;;14.30;99.90;;;;;;5072884;28;20049;-69
2022/10/28 03:49:20;;;;;;;19.17;12.63;;;14.30;99.90;;;;;;5072568;28;20483;-69
2022/10/28 03:51:46;;;;;;;21.83;12.27;;;14.20;99.90;;;;;;5072625;28;20495;-69
2022/10/28 03:54:12;;;;;;;18.70;11.47;;;14.20;99.90;;;;;;5072394;28;20128;-69
2022/10/28 03:56:39;;;;;;;24.33;13.23;;;14.20;99.90;;;;;;5072744;28;20060;-69
2022/10/28 03:59:07;;;;;;;20.00;12.13;;;14.20;99.90;;;;;;5072542;28;20492;-69
2022/10/28 04:01:33;;;;;;;20.03;12.43;;;14.20;99.90;;;;;;5072844;28;20052;-69
2022/10/28 04:03:58;;;;;;;20.43;12.70;;;14.20;99.90;;;;;;5071376;28;20051;-69
2022/10/28 04:06:24;;;;;;;22.20;14.07;;;14.20;99.90;;;;;;5072176;28;20048;-69
2022/10/28 04:08:49;;;;;;;23.00;13.83;;;14.20;99.90;;;;;;5072717;28;20486;-69
2022/10/28 04:11:15;;;;;;;23.13;14.23;;;14.20;99.90;;;;;;5072473;28;20103;-69
2022/10/28 04:13:41;;;;;;;24.80;14.67;;;14.20;99.90;;;;;;5072762;28;20055;-69
2022/10/28 04:16:06;;;;;;;22.57;13.83;;;14.20;99.90;;;;;;5072129;28;20123;-69
2022/10/28 04:18:34;;;;;;;24.73;13.93;;;14.20;99.90;;;;;;5072136;28;20041;-69
2022/10/28 04:21:00;;;;;;;18.83;12.80;;;14.20;99.90;;;;;;5071141;28;20404;-69
2022/10/28 04:23:26;;;;;;;19.67;13.53;;;14.20;99.90;;;;;;5072261;28;20067;-69
2022/10/28 04:25:55;;;;;;;21.77;13.33;;;14.20;99.90;;;;;;5075668;28;20052;-69
2022/10/28 04:28:23;;;;;;;22.47;14.10;;;14.10;99.90;;;;;;5075899;28;20055;-69
2022/10/28 04:30:48;;;;;;;22.83;13.30;;;14.10;99.90;;;;;;5076029;28;20118;-69
2022/10/28 04:33:14;;;;;;;23.80;15.00;;;14.10;99.90;;;;;;5075608;28;20485;-70
2022/10/28 04:35:42;;;;;;;27.80;15.87;;;14.10;99.90;;;;;;5075576;28;20511;-69
2022/10/28 04:38:11;;;;;;;23.80;15.07;;;14.10;99.90;;;;;;5076117;28;20098;-69
2022/10/28 04:40:36;;;;;;;22.47;14.43;;;14.10;99.90;;;;;;5075791;28;20055;-69
2022/10/28 04:43:02;;;;;;;23.77;14.63;;;14.10;99.90;;;;;;5075655;28;20041;-69
2022/10/28 04:45:28;;;;;;;23.03;15.27;;;14.10;99.90;;;;;;5075135;28;20048;-69
2022/10/28 04:47:58;;;;;;;26.87;15.13;;;14.10;99.90;;;;;;5075734;28;20060;-69
2022/10/28 04:50:23;;;;;;;26.73;14.47;;;14.10;99.90;;;;;;5075439;28;20123;-69
2022/10/28 04:52:49;;;;;;;24.10;15.10;;;14.10;99.90;;;;;;5075595;28;20076;-69
2022/10/28 04:55:15;;;;;;;24.80;15.23;;;14.00;99.90;;;;;;5075248;28;20044;-69
2022/10/28 04:57:40;;;;;;;25.33;14.90;;;14.00;99.90;;;;;;5075881;28;20044;-68
2022/10/28 05:00:07;;;;;;;20.70;13.93;;;14.00;99.90;;;;;;5075640;28;20388;-68
2022/10/28 05:02:32;;;;;;;25.33;16.00;;;14.00;99.90;;;;;;5075273;28;20045;-68
2022/10/28 05:05:02;;;;;;;31.43;15.90;;;14.00;99.90;;;;;;5075352;28;20051;-68
2022/10/28 05:07:28;;;;;;;27.07;14.93;;;14.00;99.90;;;;;;5075130;28;20420;-68
2022/10/28 05:09:54;;;;;;;21.77;14.80;;;14.00;99.90;;;;;;5075381;28;20040;-68
2022/10/28 05:12:19;;;;;;;25.20;15.83;;;13.90;99.90;;;;;;5075154;28;20049;-68
2022/10/28 05:14:45;;;;;;;22.17;15.70;;;13.90;99.90;;;;;;5074658;28;20540;-69
2022/10/28 05:17:11;;;;;;;26.47;16.07;;;13.90;99.90;;;;;;5075436;28;20098;-69
2022/10/28 05:19:37;;;;;;;29.00;15.83;;;13.90;99.90;;;;;;5074980;28;20097;-69
2022/10/28 05:22:02;;;;;;;27.80;15.77;;;13.90;99.90;;;;;;5075180;28;20056;-68
2022/10/28 05:24:28;;;;;;;22.33;15.80;;;13.90;99.90;;;;;;5074754;28;20038;-68
2022/10/28 05:26:54;;;;;;;23.03;14.47;;;13.90;99.90;;;;;;5075334;28;20388;-68
2022/10/28 05:29:19;;;;;;;23.90;14.60;;;13.90;99.90;;;;;;5074791;28;20127;-69
2022/10/28 05:31:45;;;;;;;21.80;13.23;;;13.90;99.90;;;;;;5074948;28;20071;-69
2022/10/28 05:34:11;;;;;;;24.83;13.77;;;13.80;99.90;;;;;;5074607;28;20044;-69
2022/10/28 05:36:37;;;;;;;23.83;15.17;;;13.80;99.90;;;;;;5074334;28;20064;-69
2022/10/28 05:39:04;;;;;;;22.90;15.83;;;13.80;99.90;;;;;;5074855;28;20048;-69
2022/10/28 05:41:30;;;;;;;23.40;15.97;;;13.80;99.90;;;;;;5074624;28;20048;-69
2022/10/28 05:43:55;;;;;;;25.20;15.67;;;13.80;99.90;;;;;;5074666;28;20075;-69
2022/10/28 05:46:21;;;;;;;22.87;14.83;;;13.70;99.90;;;;;;5074081;28;20113;-69
2022/10/28 05:48:47;;;;;;;24.80;15.50;;;13.80;99.90;;;;;;5074914;28;20121;-69
2022/10/28 05:51:13;;;;;;;24.43;14.47;;;13.70;99.90;;;;;;5074576;28;20055;-69
2022/10/28 05:53:40;;;;;;;26.93;16.93;;;13.70;99.90;;;;;;5073010;28;20040;-69
2022/10/28 05:56:07;;;;;;;24.93;16.10;;;13.70;99.90;;;;;;5074188;28;20538;-69
2022/10/28 05:58:33;;;;;;;28.00;17.90;;;13.70;99.90;;;;;;5074194;28;20080;-69
2022/10/28 06:00:59;;;;;;;22.70;15.57;;;13.70;99.90;;;;;;5074168;28;20086;-69
2022/10/28 06:03:24;;;;;;;27.07;16.30;;;13.70;99.90;;;;;;5073955;28;20044;-69
2022/10/28 06:05:51;;;;;;;26.63;16.67;;;13.70;99.90;;;;;;5074353;28;20040;-69
2022/10/28 06:08:16;;;;;;;28.43;15.93;;;13.70;99.90;;;;;;5074107;28;20083;-69
2022/10/28 06:10:50;;;;;;;22.97;14.57;;;13.70;99.90;;;;;;5073917;28;20779;-69
2022/10/28 06:13:15;;;;;;;24.30;16.07;;;13.70;99.90;;;;;;5074227;28;20040;-69
2022/10/28 06:15:41;;;;;;;24.60;14.73;;;13.70;99.90;;;;;;5073819;28;20281;-69
2022/10/28 06:18:07;;;;;;;24.90;14.60;;;13.70;99.90;;;;;;5074016;28;20056;-69
2022/10/28 06:20:32;;;;;;;26.00;15.43;;;13.60;99.90;;;;;;5073678;28;20048;-69
2022/10/28 06:22:58;;;;;;;28.87;15.90;;;13.60;99.90;;;;;;5074135;28;20048;-69
2022/10/28 06:25:25;;;;;;;21.13;13.90;;;13.70;99.90;;;;;;5073537;28;20060;-69
2022/10/28 06:27:56;;;;;;;26.17;15.07;;;13.70;99.90;;;;;;5073899;28;20052;-69
2022/10/28 06:30:22;;;;;;;24.27;15.33;;;13.70;99.90;;;;;;5073811;28;20476;-69
2022/10/28 06:32:48;;;;;;;25.93;14.87;;;13.70;99.90;;;;;;5073729;28;20275;-69
2022/10/28 06:35:14;;;;;;;25.30;14.20;;;13.70;99.90;;;;;;5073684;28;20181;-69
2022/10/28 06:37:40;;;;;;;21.50;14.23;;;13.70;99.90;;;;;;5073437;28;20055;-69
2022/10/28 06:40:06;;;;;;;19.73;14.60;;;13.70;99.90;;;;;;5072409;28;20044;-69
2022/10/28 06:42:32;;;;;;;24.20;15.17;;;13.70;99.90;;;;;;5073287;28;20055;-69
2022/10/28 06:44:58;;;;;;;23.40;15.07;;;13.70;99.90;;;;;;5073443;28;20041;-69
2022/10/28 06:47:23;;;;;;;21.47;14.40;;;13.70;99.90;;;;;;5072574;28;20048;-69
2022/10/28 06:49:49;;;;;;;25.23;14.60;;;13.70;99.90;;;;;;5073226;28;20131;-69
2022/10/28 06:52:15;;;;;;;23.93;14.33;;;13.70;99.90;;;;;;5073626;28;20040;-69
2022/10/28 06:54:42;;;;;;;24.47;13.10;;;13.70;99.90;;;;;;5073163;28;20044;-69
2022/10/28 06:57:09;;;;;;;22.77;12.47;;;13.70;99.90;;;;;;5073252;28;20151;-69
2022/10/28 06:59:36;;;;;;;21.10;12.27;;;13.80;99.90;;;;;;5072805;28;20051;-69
2022/10/28 07:02:02;;;;;;;20.67;12.43;;;13.80;99.90;;;;;;5073289;28;20047;-69
2022/10/28 07:04:28;;;;;;;22.07;12.17;;;13.80;99.90;;;;;;5072867;28;20078;-69
2022/10/28 07:06:57;;;;;;;21.40;11.40;;;13.90;99.90;;;;;;5073125;28;20045;-68
2022/10/28 07:09:23;;;;;;;22.10;12.07;;;13.90;99.90;;;;;;5073221;28;20045;-68
2022/10/28 07:11:49;;;;;;;20.53;11.40;;;14.00;99.90;;;;;;5071654;28;20102;-69
2022/10/28 07:14:15;;;;;;;18.90;11.37;;;14.00;99.90;;;;;;5072893;28;20500;-69
2022/10/28 07:16:41;;;;;;;19.20;10.77;;;14.10;99.90;;;;;;5072822;28;20318;-69
2022/10/28 07:19:07;;;;;;;17.37;10.53;;;14.20;99.90;;;;;;5072136;28;20321;-69
2022/10/28 07:21:33;;;;;;;20.10;9.93;;;14.20;99.90;;;;;;5072750;28;20044;-69
2022/10/28 07:23:59;;;;;;;21.43;10.53;;;14.30;99.90;;;;;;5073357;28;20043;-69
2022/10/28 07:26:26;;;;;;;16.93;9.17;;;14.30;99.90;;;;;;5072690;28;20057;-69
2022/10/28 07:28:52;;;;;;;16.70;9.53;;;14.40;99.90;;;;;;5072724;28;20052;-69
2022/10/28 07:31:17;;;;;;;20.70;9.30;;;14.50;99.90;;;;;;5072986;28;20432;-69
2022/10/28 07:33:43;;;;;;;19.20;9.53;;;14.50;99.90;;;;;;5072663;28;20040;-70
2022/10/28 07:36:10;;;;;;;19.83;9.50;;;14.50;99.90;;;;;;5073114;28;20177;-70
2022/10/28 07:38:36;;;;;;;18.93;8.90;;;14.60;99.90;;;;;;5072612;28;20066;-69
2022/10/28 07:41:07;;;;;;;16.23;8.90;;;14.60;99.90;;;;;;5072853;28;20105;-69
2022/10/28 07:43:37;;;;;;;20.20;9.13;;;14.70;99.90;;;;;;5071504;28;20056;-70
2022/10/28 07:46:05;;;;;;;19.40;10.07;;;14.70;99.90;;;;;;5072869;28;20041;-69
2022/10/28 07:48:31;;;;;;;18.53;8.97;;;14.70;99.90;;;;;;5072909;28;20052;-69
2022/10/28 07:51:00;;;;;;;22.67;9.90;;;14.80;99.90;;;;;;5073020;28;20051;-69
2022/10/28 07:53:26;;;;;;;18.37;9.67;;;14.80;99.90;;;;;;5072754;28;20105;-69
2022/10/28 07:56:00;;;;;;;17.23;8.67;;;14.90;99.90;;;;;;5072449;28;20051;-69
2022/10/28 07:58:26;;;;;;;18.20;8.20;;;14.90;99.90;;;;;;5074447;28;20542;-69
2022/10/28 08:00:52;;;;;;;18.50;9.10;;;15.00;99.90;;;;;;5076779;28;20051;-69
2022/10/28 08:03:18;;;;;;;20.20;9.03;;;15.00;99.90;;;;;;5076801;28;20044;-69
2022/10/28 08:05:44;;;;;;;17.33;8.50;;;15.10;99.90;;;;;;5075476;28;20075;-70
2022/10/28 08:08:10;;;;;;;19.10;8.97;;;15.10;99.90;;;;;;5076970;28;20056;-70
2022/10/28 08:10:35;;;;;;;13.63;8.10;;;15.10;99.90;;;;;;5058798;28;20568;-70
2022/10/28 08:13:01;;;;;;;18.17;8.57;;;15.10;99.90;;;;;;5076498;28;20048;-69
2022/10/28 08:15:28;;;;;;;15.53;8.83;;;15.20;99.90;;;;;;5076474;28;20136;-69
2022/10/28 08:17:55;;;;;;;15.93;9.23;;;15.20;99.90;;;;;;5076155;28;20107;-69
2022/10/28 08:20:21;;;;;;;18.87;9.50;;;15.20;99.90;;;;;;5076280;28;20040;-70
2022/10/28 08:22:47;;;;;;;17.03;8.07;;;15.30;99.90;;;;;;5074823;28;20048;-69
2022/10/28 08:25:13;;;;;;;16.40;8.60;;;15.30;99.90;;;;;;5076036;28;20087;-70
2022/10/28 08:27:40;;;;;;;13.47;8.07;;;15.30;99.90;;;;;;5075886;28;20045;-70
2022/10/28 08:30:07;;;;;;;17.50;7.73;;;15.40;99.90;;;;;;5076194;28;20048;-69
2022/10/28 08:32:34;;;;;;;14.50;8.43;;;15.40;99.90;;;;;;5076223;28;20048;-69
2022/10/28 08:34:59;;;;;;;14.47;8.00;;;15.40;99.90;;;;;;5075803;28;20051;-70
2022/10/28 08:37:25;;;;;;;16.73;8.40;;;15.50;99.90;;;;;;5074962;28;20052;-69
2022/10/28 08:39:51;;;;;;;17.70;8.37;;;15.50;99.90;;;;;;5075742;28;20049;-69
2022/10/28 08:42:27;;;;;;;20.93;9.23;;;15.50;99.90;;;;;;5076113;28;20374;-69
2022/10/28 08:45:09;;;;;;;15.57;8.93;;;15.60;99.90;;;;;;5075657;28;20044;-70
2022/10/28 08:47:44;;;;;;;17.87;8.27;;;15.60;99.90;;;;;;5075903;28;20044;-70
2022/10/28 08:50:21;;;;;;;19.20;8.18;;;15.70;99.90;;;;;;5075973;28;20511;-69
2022/10/28 08:52:56;;;;;;;16.17;8.07;;;15.70;99.90;;;;;;5075646;28;20052;-69
2022/10/28 08:55:25;;;;;;;;;;;15.70;99.90;;;;;;5076450;28;20041;-67
2022/10/28 08:58:03;;;;;;;16.23;8.00;;;15.80;99.90;;;;;;5075550;28;20300;-70
2022/10/28 09:00:31;;;;;;;17.27;8.93;;;15.80;99.90;;;;;;5075500;28;20094;-69
2022/10/28 09:03:02;;;;;;;19.97;8.00;;;15.80;99.90;;;;;;5075207;28;20389;-70
2022/10/28 09:05:28;;;;;;;17.40;8.27;;;15.80;99.90;;;;;;5075470;28;20045;-73
2022/10/28 09:07:56;;;;;;;16.03;7.83;;;15.90;99.90;;;;;;5075094;28;20049;-69
2022/10/28 09:10:49;;;;;;;17.20;8.40;;;15.90;99.90;;;;;;5073483;28;20063;-69
2022/10/28 09:13:20;;;;;;;15.30;8.60;;;16.00;99.90;;;;;;5074587;28;20053;-69
2022/10/28 09:16:07;;;;;;;17.90;8.07;;;16.00;99.90;;;;;;5075037;28;20055;-69
2022/10/28 09:18:36;;;;;;;14.40;7.27;;;16.00;99.90;;;;;;5075345;28;20048;-69
2022/10/28 09:21:04;;;;;;;14.83;7.90;;;16.00;99.90;;;;;;5075103;28;20143;-69
2022/10/28 09:23:41;;;;;;;20.10;8.93;;;16.00;99.90;;;;;;5075397;28;20044;-69
2022/10/28 09:26:23;;;;;;;16.30;7.97;;;16.00;99.90;;;;;;5074915;28;20056;-69
2022/10/28 09:29:15;;;;;;;19.57;7.83;;;16.00;99.90;;;;;;5074968;28;20048;-69
2022/10/28 09:31:46;;;;;;;17.53;7.30;;;16.00;99.90;;;;;;5075294;28;20404;-69
2022/10/28 09:34:24;;;;;;;14.63;7.77;;;16.10;99.90;;;;;;5075185;28;20047;-69
2022/10/28 09:37:16;;;;;;;15.53;7.63;;;16.10;99.90;;;;;;5074917;28;20052;-69
2022/10/28 09:39:55;;;;;;;16.73;7.63;;;16.10;99.90;;;;;;5050783;28;20051;-68
2022/10/28 09:42:29;;;;;;;17.17;8.83;;;16.10;99.90;;;;;;5074961;28;20101;-69
2022/10/28 09:45:05;;;;;;;16.30;8.85;;;16.10;99.90;;;;;;5074700;28;20045;-69
2022/10/28 09:47:40;;;;;;;15.43;7.33;;;16.20;99.90;;;;;;5074121;28;20059;-70
2022/10/28 09:50:16;;;;;;;20.90;8.43;;;16.20;99.90;;;;;;5073464;28;20045;-69
2022/10/28 09:53:16;;;;;;;18.67;7.67;;;16.30;99.90;;;;;;5074836;28;20107;-69
2022/10/28 09:55:42;;;;;;;19.10;7.77;;;16.40;99.90;;;;;;5074713;28;20535;-69
2022/10/28 09:58:10;;;;;;;17.67;7.10;;;16.40;99.90;;;;;;5074441;28;20135;-69
2022/10/28 10:00:36;;;;;;;19.93;8.57;;;16.50;99.90;;;;;;5073370;28;20047;-69
2022/10/28 10:03:02;;;;;;;20.93;8.53;;;16.50;99.90;;;;;;5073110;28;20048;-67
2022/10/28 10:05:29;;;;;;;17.63;8.43;;;16.60;99.90;;;;;;5056878;28;20056;-69
2022/10/28 10:08:03;;;;;;;17.33;7.00;;;16.60;99.90;;;;;;5074277;28;20048;-69
2022/10/28 10:10:47;;;;;;;24.60;8.30;;;16.70;99.90;;;;;;5074410;28;20052;-69
2022/10/28 10:13:16;;;;;;;18.15;7.63;;;16.70;99.90;;;;;;5074357;28;20049;-69
2022/10/28 10:15:45;;;;;;;16.97;7.73;;;16.70;99.90;;;;;;5074110;28;20131;-69
2022/10/28 10:18:27;;;;;;;14.57;6.73;;;16.80;99.90;;;;;;5074065;28;20051;-69
2022/10/28 10:20:56;;;;;;;13.77;7.03;;;16.80;99.90;;;;;;5073930;28;20054;-69
2022/10/28 10:23:25;;;;;;;16.23;7.17;;;16.90;99.90;;;;;;5073993;28;20044;-69
2022/10/28 10:25:57;;;;;;;14.83;6.50;;;17.00;99.90;;;;;;5073556;28;20053;-69
2022/10/28 10:28:26;;;;;;;13.40;6.70;;;17.00;99.90;;;;;;5074225;28;20106;-69
2022/10/28 10:30:55;;;;;;;19.53;8.20;;;17.00;99.90;;;;;;5073410;28;20507;-69
2022/10/28 10:33:27;;;;;;;13.80;6.93;;;17.10;99.90;;;;;;5073956;28;20220;-69
2022/10/28 10:36:00;;;;;;;14.60;6.20;;;17.20;99.90;;;;;;5073703;28;20044;-69
2022/10/28 10:38:27;;;;;;;16.87;6.27;;;17.20;99.90;;;;;;5074178;28;20377;-69
2022/10/28 10:40:53;;;;;;;14.87;6.67;;;17.20;99.90;;;;;;5072621;28;20472;-69
2022/10/28 10:43:32;;;;;;;15.30;7.50;;;17.20;99.90;;;;;;5073728;28;20078;-69
2022/10/28 10:46:02;;;;;;;16.53;7.00;;;17.20;99.90;;;;;;5073455;28;20051;-69
2022/10/28 10:48:32;;;;;;;20.57;7.73;;;17.30;99.90;;;;;;5073848;28;20056;-68
2022/10/28 10:51:05;;;;;;;17.63;6.90;;;17.30;99.90;;;;;;5073107;28;20060;-69
2022/10/28 10:53:32;;;;;;;17.50;7.13;;;17.40;99.90;;;;;;5073413;28;20469;-69
2022/10/28 10:56:04;;;;;;;24.20;7.30;;;17.40;99.90;;;;;;5072941;28;20096;-69
2022/10/28 10:58:34;;;;;;;15.47;7.00;;;17.50;99.90;;;;;;5073335;28;20045;-69
2022/10/28 11:01:03;;;;;;;19.50;7.40;;;17.50;99.90;;;;;;5072663;28;20515;-69
2022/10/28 11:03:38;;;;;;;12.07;6.67;;;17.50;99.90;;;;;;5073176;28;20033;-69
2022/10/28 11:06:06;;;;;;;18.53;7.53;;;17.50;99.90;;;;;;5055138;28;20048;-69
2022/10/28 11:08:40;;;;;;;13.60;6.77;;;17.60;99.90;;;;;;5073161;28;20127;-70
2022/10/28 11:11:33;;;;;;;14.07;6.80;;;17.70;99.90;;;;;;5072603;28;20553;-69
2022/10/28 11:14:09;;;;;;;16.57;7.80;;;17.70;99.90;;;;;;5067459;28;20499;-73
2022/10/28 11:16:47;;;;;;;15.93;6.53;;;17.70;99.90;;;;;;5073129;28;20044;-76
2022/10/28 11:19:31;;;;;;;12.57;6.70;;;17.80;99.90;;;;;;5072872;28;20071;-68
2022/10/28 11:22:11;;;;;;;15.43;6.27;;;17.80;99.90;;;;;;5072440;28;20080;-71
2022/10/28 11:25:00;;;;;;;17.10;6.70;;;17.80;99.90;;;;;;5066455;28;20047;-69
2022/10/28 11:27:50;;;;;;;16.13;6.77;;;17.80;99.90;;;;;;5060979;28;20054;-70
2022/10/28 11:30:19;;;;;;;18.60;6.67;;;17.80;99.90;;;;;;5066697;28;20044;-69
2022/10/28 11:33:12;;;;;;;16.17;5.93;;;17.90;99.90;;;;;;5066924;28;20055;-69
2022/10/28 11:35:38;;;;;;;12.50;5.33;;;18.00;99.90;;;;;;5063410;28;20105;-74
2022/10/28 11:38:15;;;;;;;12.57;5.60;;;18.00;99.90;;;;;;5065936;28;20114;-69
2022/10/28 11:41:13;;;;;;;17.63;6.20;;;18.10;99.90;;;;;;5066617;28;20059;-69
2022/10/28 11:43:50;;;;;;;15.50;6.40;;;18.20;99.90;;;;;;5066831;28;20096;-68
2022/10/28 11:46:45;;;;;;;16.57;6.80;;;18.20;99.90;;;;;;5064805;28;20827;-69
2022/10/28 11:49:10;;;;;;;17.83;5.77;;;18.30;99.90;;;;;;5066273;28;20044;-69
2022/10/28 11:51:51;;;;;;;17.97;5.80;;;18.30;99.90;;;;;;5066350;28;20094;-69
2022/10/28 11:54:30;;;;;;;18.10;7.07;;;18.30;99.90;;;;;;5065584;28;20064;-68
2022/10/28 11:57:09;;;;;;;20.10;6.07;;;18.40;99.90;;;;;;5065067;28;20045;-71
2022/10/28 12:00:13;;;;;;;15.50;6.03;;;18.30;99.90;;;;;;5066726;28;20048;-68
2022/10/28 12:02:56;;;;;;;14.87;6.13;;;18.40;99.90;;;;;;5066697;28;20066;-69
2022/10/28 12:05:34;;;;;;;19.90;6.67;;;18.40;99.90;;;;;;5062629;28;20473;-68
2022/10/28 12:08:17;;;;;;;21.30;6.97;;;18.40;99.90;;;;;;5064570;28;20044;-69
2022/10/28 12:11:10;;;;;;;18.73;6.70;;;18.40;99.90;;;;;;5059917;28;20049;-68
2022/10/28 12:14:16;;;;;;;15.30;6.10;;;18.40;99.90;;;;;;5058571;28;20053;-69
2022/10/28 12:17:05;;;;;;;11.47;6.63;;;18.40;99.90;;;;;;5012658;28;20557;-71
2022/10/28 12:19:37;;;;;;;16.30;6.00;;;18.40;99.90;;;;;;5012228;28;20050;-69
2022/10/28 12:22:41;;;;;;;18.57;6.83;;;18.40;99.90;;;;;;5050854;28;20148;-68
2022/10/28 12:25:14;;;;;;;15.87;6.13;;;18.50;99.90;;;;;;5065772;28;20061;-69
2022/10/28 12:27:42;;;;;;;18.70;6.70;;;18.40;99.90;;;;;;5071349;28;20048;-68
2022/10/28 12:30:30;;;;;;;23.37;6.90;;;18.40;99.90;;;;;;5070797;28;20067;-68
2022/10/28 12:33:08;;;;;;;17.03;6.87;;;18.50;99.90;;;;;;5065359;28;20048;-69
2022/10/28 12:35:38;;;;;;;16.23;6.43;;;18.50;99.90;;;;;;5069147;28;20041;-69
2022/10/28 12:38:15;;;;;;;13.53;6.73;;;18.50;99.90;;;;;;5070739;28;20123;-70
2022/10/28 12:40:51;;;;;;;15.60;5.60;;;18.50;99.90;;;;;;5070180;28;20048;-74
2022/10/28 12:43:34;;;;;;;20.10;6.13;;;18.60;99.90;;;;;;5070791;28;20102;-70
2022/10/28 12:46:01;;;;;;;14.70;5.73;;;18.60;99.90;;;;;;5071455;28;20098;-71
2022/10/28 12:48:32;;;;;;;12.97;6.20;;;18.60;99.90;;;;;;5073936;28;20075;-70
2022/10/28 12:51:11;;;;;;;18.03;6.00;;;18.60;99.90;;;;;;5074985;28;20052;-70
2022/10/28 12:54:01;;;;;;;16.27;7.07;;;18.60;99.90;;;;;;5075278;28;20403;-70